createdAt,value
2022-09-18T00:00:44.000Z,0.7
2022-09-18T00:02:00.000Z,0.8
2022-09-18T00:03:17.000Z,0.8
2022-09-18T00:04:33.000Z,0.8
2022-09-18T00:05:49.000Z,1
2022-09-18T00:07:05.000Z,0.8
2022-09-18T00:08:22.000Z,1.1
2022-09-18T00:09:38.000Z,0.9
2022-09-18T00:10:54.000Z,0.9
2022-09-18T00:12:10.000Z,1.1
2022-09-18T00:13:26.000Z,1.1
2022-09-18T00:14:43.000Z,0.9
2022-09-18T00:15:58.000Z,1.1
2022-09-18T00:17:14.000Z,1
2022-09-18T00:18:30.000Z,0.8
2022-09-18T00:19:47.000Z,1.1
2022-09-18T00:21:03.000Z,0.9
2022-09-18T00:22:19.000Z,1.1
2022-09-18T00:23:35.000Z,1.2
2022-09-18T00:24:52.000Z,1.2
2022-09-18T00:26:08.000Z,1.2
2022-09-18T00:27:24.000Z,1.2
2022-09-18T00:28:40.000Z,1.1
2022-09-18T00:29:56.000Z,1.2
2022-09-18T00:31:13.000Z,1.2
2022-09-18T00:32:28.000Z,1.2
2022-09-18T00:33:44.000Z,1.2
2022-09-18T00:35:00.000Z,1.2
2022-09-18T00:36:17.000Z,1.4
2022-09-18T00:37:33.000Z,1.3
2022-09-18T00:38:49.000Z,1.2
2022-09-18T00:40:05.000Z,1.2
2022-09-18T00:41:22.000Z,1.1
2022-09-18T00:42:38.000Z,1.2
2022-09-18T00:43:54.000Z,1.3
2022-09-18T00:45:10.000Z,1.1
2022-09-18T00:46:27.000Z,1.2
2022-09-18T00:47:43.000Z,1.2
2022-09-18T00:48:59.000Z,1.2
2022-09-18T00:50:14.000Z,1.6
2022-09-18T00:51:31.000Z,1.3
2022-09-18T00:52:47.000Z,1
2022-09-18T00:54:03.000Z,1
2022-09-18T00:55:18.000Z,1.2
2022-09-18T00:56:33.000Z,1.3
2022-09-18T00:57:49.000Z,1.4
2022-09-18T00:59:04.000Z,1.1
2022-09-18T01:00:20.000Z,0.9
2022-09-18T01:01:36.000Z,0.9
2022-09-18T01:02:53.000Z,1.1
2022-09-18T01:04:09.000Z,1.1
2022-09-18T01:05:25.000Z,1.2
2022-09-18T01:06:41.000Z,1.2
2022-09-18T01:07:58.000Z,1.1
2022-09-18T01:09:14.000Z,1
2022-09-18T01:10:30.000Z,1.3
2022-09-18T01:11:46.000Z,1.3
2022-09-18T01:13:03.000Z,1.1
2022-09-18T01:14:19.000Z,1.1
2022-09-18T01:15:34.000Z,0.9
2022-09-18T01:16:50.000Z,1.2
2022-09-18T01:18:07.000Z,1.3
2022-09-18T01:19:23.000Z,1
2022-09-18T01:20:39.000Z,1.1
2022-09-18T01:21:55.000Z,0.9
2022-09-18T01:23:11.000Z,1.1
2022-09-18T01:24:27.000Z,1.3
2022-09-18T01:25:42.000Z,1.4
2022-09-18T01:26:58.000Z,1.2
2022-09-18T01:28:14.000Z,1.1
2022-09-18T01:29:31.000Z,1
2022-09-18T01:30:47.000Z,1
2022-09-18T01:32:02.000Z,1.2
2022-09-18T01:33:17.000Z,1.3
2022-09-18T01:34:34.000Z,1
2022-09-18T01:35:50.000Z,1.3
2022-09-18T01:37:06.000Z,1.2
2022-09-18T01:38:22.000Z,1.1
2022-09-18T01:39:39.000Z,1.3
2022-09-18T01:40:55.000Z,1.4
2022-09-18T01:42:11.000Z,1.2
2022-09-18T01:43:27.000Z,1.2
2022-09-18T01:44:44.000Z,1.3
2022-09-18T01:46:00.000Z,1.1
2022-09-18T01:47:16.000Z,1.2
2022-09-18T01:48:32.000Z,1.3
2022-09-18T01:49:47.000Z,1.3
2022-09-18T01:51:04.000Z,1.2
2022-09-18T01:52:20.000Z,1.1
2022-09-18T01:53:36.000Z,1.2
2022-09-18T01:54:52.000Z,1.2
2022-09-18T01:56:09.000Z,1.1
2022-09-18T01:57:25.000Z,1.1
2022-09-18T01:58:40.000Z,1.2
2022-09-18T01:59:56.000Z,1.2
2022-09-18T02:01:13.000Z,1.2
2022-09-18T02:02:29.000Z,1
2022-09-18T02:03:44.000Z,1.2
2022-09-18T02:04:59.000Z,1
2022-09-18T02:06:16.000Z,1
2022-09-18T02:07:32.000Z,1.2
2022-09-18T02:08:48.000Z,1.2
2022-09-18T02:10:04.000Z,1.2
2022-09-18T02:11:21.000Z,1.2
2022-09-18T02:12:37.000Z,1
2022-09-18T02:13:53.000Z,1
2022-09-18T02:15:09.000Z,0.8
2022-09-18T02:16:25.000Z,1.4
2022-09-18T02:17:42.000Z,1
2022-09-18T02:18:58.000Z,1.3
2022-09-18T02:20:14.000Z,1
2022-09-18T02:21:29.000Z,1
2022-09-18T02:22:46.000Z,1.2
2022-09-18T02:24:02.000Z,0.9
2022-09-18T02:25:18.000Z,1.2
2022-09-18T02:26:34.000Z,1
2022-09-18T02:27:51.000Z,1.1
2022-09-18T02:29:07.000Z,0.8
2022-09-18T02:30:23.000Z,1
2022-09-18T02:31:39.000Z,1
2022-09-18T02:32:56.000Z,0.8
2022-09-18T02:34:12.000Z,1
2022-09-18T02:35:28.000Z,1
2022-09-18T02:36:44.000Z,0.8
2022-09-18T02:37:59.000Z,1
2022-09-18T02:39:15.000Z,0.8
2022-09-18T02:40:30.000Z,1.1
2022-09-18T02:41:46.000Z,1
2022-09-18T02:43:02.000Z,1.1
2022-09-18T02:44:18.000Z,0.8
2022-09-18T02:45:33.000Z,1.1
2022-09-18T02:46:49.000Z,0.8
2022-09-18T02:48:05.000Z,1.3
2022-09-18T02:49:22.000Z,1
2022-09-18T02:50:38.000Z,1.1
2022-09-18T02:51:54.000Z,1.1
2022-09-18T02:53:10.000Z,1.1
2022-09-18T02:54:27.000Z,0.9
2022-09-18T02:55:43.000Z,0.9
2022-09-18T02:56:59.000Z,1
2022-09-18T02:58:15.000Z,0.8
2022-09-18T02:59:32.000Z,1.1
2022-09-18T03:00:48.000Z,1
2022-09-18T03:02:03.000Z,1
2022-09-18T03:03:19.000Z,0.9
2022-09-18T03:04:35.000Z,0.9
2022-09-18T03:05:52.000Z,0.8
2022-09-18T03:07:08.000Z,1.1
2022-09-18T03:08:24.000Z,1
2022-09-18T03:09:40.000Z,0.8
2022-09-18T03:10:57.000Z,1
2022-09-18T03:12:13.000Z,0.8
2022-09-18T03:13:29.000Z,0.9
2022-09-18T03:14:45.000Z,0.9
2022-09-18T03:16:02.000Z,0.9
2022-09-18T03:17:18.000Z,1
2022-09-18T03:18:33.000Z,0.8
2022-09-18T03:19:49.000Z,0.9
2022-09-18T03:21:06.000Z,0.8
2022-09-18T03:22:22.000Z,1
2022-09-18T03:23:38.000Z,0.8
2022-09-18T03:24:54.000Z,0.8
2022-09-18T03:26:10.000Z,1.2
2022-09-18T03:27:27.000Z,0.8
2022-09-18T03:28:43.000Z,0.8
2022-09-18T03:29:59.000Z,1
2022-09-18T03:31:15.000Z,1.2
2022-09-18T03:32:32.000Z,1.2
2022-09-18T03:33:48.000Z,1.1
2022-09-18T03:35:03.000Z,1.4
2022-09-18T03:36:19.000Z,1.1
2022-09-18T03:37:36.000Z,1.2
2022-09-18T03:38:52.000Z,1.3
2022-09-18T03:40:08.000Z,1.1
2022-09-18T03:41:23.000Z,1.3
2022-09-18T03:42:39.000Z,1.3
2022-09-18T03:43:54.000Z,1.1
2022-09-18T03:45:09.000Z,1.2
2022-09-18T03:46:25.000Z,1.2
2022-09-18T03:47:42.000Z,1.5
2022-09-18T03:48:58.000Z,1.2
2022-09-18T03:50:14.000Z,1.2
2022-09-18T03:51:30.000Z,1
2022-09-18T03:52:47.000Z,1.1
2022-09-18T03:54:03.000Z,1.2
2022-09-18T03:55:19.000Z,1.2
2022-09-18T03:56:35.000Z,1.1
2022-09-18T03:57:51.000Z,1.2
2022-09-18T03:59:08.000Z,1.1
2022-09-18T04:00:24.000Z,1
2022-09-18T04:01:39.000Z,1.2
2022-09-18T04:02:55.000Z,1.4
2022-09-18T04:04:12.000Z,1.1
2022-09-18T04:05:28.000Z,1
2022-09-18T04:06:44.000Z,1
2022-09-18T04:08:00.000Z,1.3
2022-09-18T04:09:17.000Z,1.2
2022-09-18T04:10:33.000Z,1.5
2022-09-18T04:11:48.000Z,1.2
2022-09-18T04:13:03.000Z,1.2
2022-09-18T04:14:19.000Z,1.3
2022-09-18T04:15:34.000Z,1.3
2022-09-18T04:16:50.000Z,1.3
2022-09-18T04:18:06.000Z,1.3
2022-09-18T04:19:23.000Z,1.2
2022-09-18T04:20:39.000Z,1.5
2022-09-18T04:21:55.000Z,1.3
2022-09-18T04:23:11.000Z,1.4
2022-09-18T04:24:27.000Z,1.3
2022-09-18T04:25:44.000Z,1.4
2022-09-18T04:27:00.000Z,1.3
2022-09-18T04:28:16.000Z,1.4
2022-09-18T04:29:32.000Z,1.4
2022-09-18T04:30:49.000Z,1.5
2022-09-18T04:32:04.000Z,1.3
2022-09-18T04:33:20.000Z,1.3
2022-09-18T04:34:36.000Z,1.3
2022-09-18T04:35:53.000Z,1.6
2022-09-18T04:37:09.000Z,1.3
2022-09-18T04:38:25.000Z,1.6
2022-09-18T04:39:41.000Z,1.6
2022-09-18T04:40:58.000Z,1.5
2022-09-18T04:42:14.000Z,1.6
2022-09-18T04:43:29.000Z,1.6
2022-09-18T04:44:44.000Z,1.7
2022-09-18T04:46:00.000Z,1.4
2022-09-18T04:47:15.000Z,1.6
2022-09-18T04:48:31.000Z,1.5
2022-09-18T04:49:47.000Z,1.6
2022-09-18T04:51:03.000Z,1.4
2022-09-18T04:52:20.000Z,1.4
2022-09-18T04:53:36.000Z,1.7
2022-09-18T04:54:52.000Z,1.5
2022-09-18T04:56:08.000Z,1.5
2022-09-18T04:57:25.000Z,1.5
2022-09-18T04:58:41.000Z,1.7
2022-09-18T04:59:57.000Z,1.6
2022-09-18T05:01:13.000Z,1.6
2022-09-18T05:02:30.000Z,1.3
2022-09-18T05:03:45.000Z,1.8
2022-09-18T05:05:00.000Z,1.6
2022-09-18T05:06:16.000Z,1.3
2022-09-18T05:07:33.000Z,1.6
2022-09-18T05:08:49.000Z,1.5
2022-09-18T05:10:05.000Z,1.3
2022-09-18T05:11:21.000Z,1.4
2022-09-18T05:12:37.000Z,1.6
2022-09-18T05:13:52.000Z,1.5
2022-09-18T05:15:07.000Z,1.4
2022-09-18T05:16:22.000Z,2.1
2022-09-18T05:17:39.000Z,1.6
2022-09-18T05:18:55.000Z,1.4
2022-09-18T05:20:11.000Z,1.5
2022-09-18T05:21:27.000Z,1.2
2022-09-18T05:22:43.000Z,1.4
2022-09-18T05:24:00.000Z,1.5
2022-09-18T05:25:16.000Z,1.3
2022-09-18T05:26:32.000Z,1.4
2022-09-18T05:27:48.000Z,1.4
2022-09-18T05:29:05.000Z,1.5
2022-09-18T05:30:21.000Z,1.3
2022-09-18T05:31:37.000Z,1.4
2022-09-18T05:32:52.000Z,1.6
2022-09-18T05:34:09.000Z,1.5
2022-09-18T05:35:25.000Z,1.7
2022-09-18T05:36:41.000Z,1.3
2022-09-18T05:37:57.000Z,1.8
2022-09-18T05:39:14.000Z,1.2
2022-09-18T05:40:30.000Z,1.5
2022-09-18T05:41:45.000Z,1.6
2022-09-18T05:43:00.000Z,1.3
2022-09-18T05:44:16.000Z,1.3
2022-09-18T05:45:33.000Z,1.6
2022-09-18T05:46:48.000Z,1.3
2022-09-18T05:48:03.000Z,1.2
2022-09-18T05:49:19.000Z,1.4
2022-09-18T05:50:36.000Z,1.1
2022-09-18T05:51:52.000Z,1.2
2022-09-18T05:53:08.000Z,1.1
2022-09-18T05:54:24.000Z,1.4
2022-09-18T05:55:41.000Z,1.1
2022-09-18T05:56:57.000Z,1.2
2022-09-18T05:58:13.000Z,1.2
2022-09-18T05:59:29.000Z,1.2
2022-09-18T06:00:46.000Z,1.3
2022-09-18T06:02:02.000Z,1.4
2022-09-18T06:03:18.000Z,1
2022-09-18T06:04:33.000Z,1.4
2022-09-18T06:05:50.000Z,1.2
2022-09-18T06:07:06.000Z,1.2
2022-09-18T06:08:22.000Z,1
2022-09-18T06:09:38.000Z,1
2022-09-18T06:10:54.000Z,0.8
2022-09-18T06:12:11.000Z,0.9
2022-09-18T06:13:26.000Z,1.1
2022-09-18T06:14:41.000Z,1
2022-09-18T06:15:57.000Z,1.1
2022-09-18T06:17:14.000Z,1.1
2022-09-18T06:18:30.000Z,1.2
2022-09-18T06:19:46.000Z,1.3
2022-09-18T06:21:02.000Z,1.2
2022-09-18T06:22:19.000Z,1.1
2022-09-18T06:23:35.000Z,1.2
2022-09-18T06:24:50.000Z,1
2022-09-18T06:26:05.000Z,1.2
2022-09-18T06:27:22.000Z,1
2022-09-18T06:28:38.000Z,1.3
2022-09-18T06:29:54.000Z,1.3
2022-09-18T06:31:10.000Z,1.1
2022-09-18T06:32:27.000Z,1.2
2022-09-18T06:33:43.000Z,1.2
2022-09-18T06:34:59.000Z,1.3
2022-09-18T06:36:15.000Z,1.2
2022-09-18T06:37:31.000Z,1.1
2022-09-18T06:38:48.000Z,1.3
2022-09-18T06:40:04.000Z,1.3
2022-09-18T06:41:20.000Z,1.4
2022-09-18T06:42:35.000Z,1.2
2022-09-18T06:43:52.000Z,1.4
2022-09-18T06:45:08.000Z,1.1
2022-09-18T06:46:24.000Z,1.3
2022-09-18T06:47:40.000Z,1.5
2022-09-18T06:48:57.000Z,1.3
2022-09-18T06:50:13.000Z,1.2
2022-09-18T06:51:29.000Z,1.2
2022-09-18T06:52:45.000Z,1
2022-09-18T06:54:02.000Z,1.3
2022-09-18T06:55:18.000Z,1.2
2022-09-18T06:56:34.000Z,1.2
2022-09-18T06:57:50.000Z,1.2
2022-09-18T06:59:05.000Z,1.2
2022-09-18T07:00:22.000Z,1
2022-09-18T07:01:38.000Z,1.6
2022-09-18T07:02:53.000Z,1.4
2022-09-18T07:04:08.000Z,1.3
2022-09-18T07:05:25.000Z,1.4
2022-09-18T07:06:41.000Z,1.3
2022-09-18T07:07:57.000Z,1.1
2022-09-18T07:09:13.000Z,1.2
2022-09-18T07:10:30.000Z,1.4
2022-09-18T07:11:46.000Z,1.4
2022-09-18T07:13:02.000Z,1.4
2022-09-18T07:14:18.000Z,1.3
2022-09-18T07:15:35.000Z,1.4
2022-09-18T07:16:51.000Z,1.6
2022-09-18T07:18:07.000Z,1.6
2022-09-18T07:19:23.000Z,1.5
2022-09-18T07:20:38.000Z,1.5
2022-09-18T07:21:55.000Z,1.3
2022-09-18T07:23:11.000Z,1.4
2022-09-18T07:24:27.000Z,1.4
2022-09-18T07:25:43.000Z,1.4
2022-09-18T07:27:00.000Z,1.3
2022-09-18T07:28:16.000Z,1.6
2022-09-18T07:29:31.000Z,1.3
2022-09-18T07:30:46.000Z,1.2
2022-09-18T07:32:02.000Z,1.1
2022-09-18T07:33:17.000Z,1
2022-09-18T07:34:33.000Z,1.1
2022-09-18T07:35:49.000Z,1.1
2022-09-18T07:37:05.000Z,1.1
2022-09-18T07:38:20.000Z,1
2022-09-18T07:39:36.000Z,1.1
2022-09-18T07:40:52.000Z,0.9
2022-09-18T07:42:09.000Z,0.8
2022-09-18T07:43:25.000Z,0.9
2022-09-18T07:44:41.000Z,0.8
2022-09-18T07:45:57.000Z,0.9
2022-09-18T07:47:14.000Z,0.8
2022-09-18T07:48:30.000Z,1
2022-09-18T07:49:46.000Z,0.9
2022-09-18T07:51:02.000Z,0.7
2022-09-18T07:52:18.000Z,0.8
2022-09-18T07:53:35.000Z,0.8
2022-09-18T07:54:50.000Z,0.8
2022-09-18T07:56:06.000Z,0.9
2022-09-18T07:57:22.000Z,0.8
2022-09-18T07:58:39.000Z,0.8
2022-09-18T07:59:55.000Z,0.8
2022-09-18T08:01:11.000Z,1
2022-09-18T08:02:27.000Z,0.7
2022-09-18T08:03:43.000Z,0.7
2022-09-18T08:04:58.000Z,0.8
2022-09-18T08:06:14.000Z,0.7
2022-09-18T08:07:29.000Z,0.9
2022-09-18T08:08:45.000Z,0.5
2022-09-18T08:10:01.000Z,0.8
2022-09-18T08:11:17.000Z,0.6
2022-09-18T08:12:33.000Z,0.6
2022-09-18T08:13:50.000Z,0.6
2022-09-18T08:15:06.000Z,0.5
2022-09-18T08:16:22.000Z,0.7
2022-09-18T08:17:38.000Z,0.7
2022-09-18T08:18:54.000Z,0.8
2022-09-18T08:20:11.000Z,0.7
2022-09-18T08:21:27.000Z,0.9
2022-09-18T08:22:43.000Z,0.7
2022-09-18T08:23:59.000Z,0.7
2022-09-18T08:25:16.000Z,0.6
2022-09-18T08:26:31.000Z,0.7
2022-09-18T08:27:47.000Z,0.7
2022-09-18T08:29:03.000Z,0.7
2022-09-18T08:30:20.000Z,0.4
2022-09-18T08:31:36.000Z,0.6
2022-09-18T08:32:52.000Z,0.7
2022-09-18T08:34:08.000Z,0.7
2022-09-18T08:35:25.000Z,0.7
2022-09-18T08:36:41.000Z,0.7
2022-09-18T08:37:57.000Z,0.5
2022-09-18T08:39:13.000Z,0.7
2022-09-18T08:40:29.000Z,0.6
2022-09-18T08:41:44.000Z,0.7
2022-09-18T08:43:00.000Z,0.7
2022-09-18T08:44:15.000Z,0.6
2022-09-18T08:45:31.000Z,0.7
2022-09-18T08:46:47.000Z,0.5
2022-09-18T08:48:03.000Z,0.5
2022-09-18T08:49:19.000Z,0.5
2022-09-18T08:50:35.000Z,0.5
2022-09-18T08:51:52.000Z,0.3
2022-09-18T08:53:08.000Z,0.6
2022-09-18T08:54:24.000Z,0.4
2022-09-18T08:55:40.000Z,0.6
2022-09-18T08:56:57.000Z,0.6
2022-09-18T08:58:13.000Z,0.3
2022-09-18T08:59:29.000Z,0.5
2022-09-18T09:00:45.000Z,0.3
2022-09-18T09:02:01.000Z,0.4
2022-09-18T09:03:17.000Z,0.2
2022-09-18T09:04:33.000Z,0.2
2022-09-18T09:05:49.000Z,0.3
2022-09-18T09:07:05.000Z,0.3
2022-09-18T09:08:22.000Z,0.7
2022-09-18T09:09:38.000Z,0.3
2022-09-18T09:10:54.000Z,0.2
2022-09-18T09:12:09.000Z,0.3
2022-09-18T09:13:25.000Z,0.4
2022-09-18T09:14:41.000Z,0.4
2022-09-18T09:15:56.000Z,0.2
2022-09-18T09:17:11.000Z,0.1
2022-09-18T09:18:28.000Z,0.1
2022-09-18T09:19:44.000Z,0
2022-09-18T09:20:59.000Z,0
2022-09-18T09:22:15.000Z,0
2022-09-18T09:23:32.000Z,0
2022-09-18T09:24:48.000Z,0
2022-09-18T09:26:04.000Z,0
2022-09-18T09:27:20.000Z,0
2022-09-18T09:28:37.000Z,0
2022-09-18T09:29:53.000Z,0
2022-09-18T09:31:09.000Z,0
2022-09-18T09:32:25.000Z,0
2022-09-18T09:33:42.000Z,0
2022-09-18T09:34:58.000Z,0
2022-09-18T09:36:14.000Z,0
2022-09-18T09:37:29.000Z,0
2022-09-18T09:38:45.000Z,0
2022-09-18T09:40:02.000Z,0
2022-09-18T09:41:18.000Z,0
2022-09-18T09:42:33.000Z,0
2022-09-18T09:43:48.000Z,0
2022-09-18T09:45:05.000Z,0
2022-09-18T09:46:20.000Z,0
2022-09-18T09:47:35.000Z,0
2022-09-18T09:48:51.000Z,0
2022-09-18T09:50:08.000Z,0
2022-09-18T09:51:24.000Z,0
2022-09-18T09:52:40.000Z,0
2022-09-18T09:53:56.000Z,0
2022-09-18T09:55:13.000Z,0
2022-09-18T09:56:29.000Z,0
2022-09-18T09:57:45.000Z,0
2022-09-18T09:59:01.000Z,0
2022-09-18T10:00:18.000Z,0
2022-09-18T10:01:34.000Z,0
2022-09-18T10:02:50.000Z,0.1
2022-09-18T10:04:05.000Z,0.1
2022-09-18T10:05:21.000Z,0
2022-09-18T10:06:38.000Z,0
2022-09-18T10:07:54.000Z,0
2022-09-18T10:09:10.000Z,0
2022-09-18T10:10:26.000Z,0
2022-09-18T10:11:43.000Z,0.1
2022-09-18T10:12:58.000Z,0
2022-09-18T10:14:14.000Z,0
2022-09-18T10:15:29.000Z,0
2022-09-18T10:16:45.000Z,0.1
2022-09-18T10:18:01.000Z,0
2022-09-18T10:19:17.000Z,0
2022-09-18T10:20:33.000Z,0
2022-09-18T10:21:50.000Z,0.1
2022-09-18T10:23:06.000Z,0
2022-09-18T10:24:22.000Z,0
2022-09-18T10:25:38.000Z,0
2022-09-18T10:26:55.000Z,0
2022-09-18T10:28:11.000Z,0
2022-09-18T10:29:27.000Z,0
2022-09-18T10:30:43.000Z,0
2022-09-18T10:31:59.000Z,0
2022-09-18T10:33:15.000Z,0
2022-09-18T10:34:31.000Z,0
2022-09-18T10:35:47.000Z,0
2022-09-18T10:37:03.000Z,0
2022-09-18T10:38:20.000Z,0
2022-09-18T10:39:36.000Z,0
2022-09-18T10:40:52.000Z,0
2022-09-18T10:42:07.000Z,0
2022-09-18T10:43:23.000Z,0
2022-09-18T10:44:39.000Z,0
2022-09-18T10:45:55.000Z,0
2022-09-18T10:47:10.000Z,0
2022-09-18T10:48:27.000Z,0
2022-09-18T10:49:42.000Z,0
2022-09-18T10:50:58.000Z,0
2022-09-18T10:52:14.000Z,0
2022-09-18T10:53:31.000Z,0
2022-09-18T10:54:47.000Z,0
2022-09-18T10:56:03.000Z,0
2022-09-18T10:57:19.000Z,0
2022-09-18T10:58:35.000Z,0
2022-09-18T10:59:52.000Z,0.1
2022-09-18T11:01:08.000Z,0
2022-09-18T11:02:24.000Z,0
2022-09-18T11:03:40.000Z,0.1
2022-09-18T11:04:57.000Z,0
2022-09-18T11:06:12.000Z,0
2022-09-18T11:07:28.000Z,0
2022-09-18T11:08:44.000Z,0
2022-09-18T11:10:01.000Z,0
2022-09-18T11:11:17.000Z,0
2022-09-18T11:12:33.000Z,0
2022-09-18T11:13:48.000Z,0
2022-09-18T11:15:04.000Z,0
2022-09-18T11:16:19.000Z,0
2022-09-18T11:17:34.000Z,0
2022-09-18T11:18:50.000Z,0
2022-09-18T11:20:07.000Z,0
2022-09-18T11:21:23.000Z,0
2022-09-18T11:22:39.000Z,0
2022-09-18T11:23:55.000Z,0
2022-09-18T11:25:11.000Z,0
2022-09-18T11:26:28.000Z,0
2022-09-18T11:27:44.000Z,0
2022-09-18T11:29:00.000Z,0
2022-09-18T11:30:16.000Z,0.1
2022-09-18T11:31:33.000Z,0
2022-09-18T11:32:49.000Z,0
2022-09-18T11:34:05.000Z,0
2022-09-18T11:35:20.000Z,0
2022-09-18T11:36:37.000Z,0
2022-09-18T11:37:53.000Z,0
2022-09-18T11:39:09.000Z,0
2022-09-18T11:40:25.000Z,0
2022-09-18T11:41:42.000Z,0
2022-09-18T11:42:57.000Z,0
2022-09-18T11:44:12.000Z,0
2022-09-18T11:45:28.000Z,0.1
2022-09-18T11:46:45.000Z,0
2022-09-18T11:48:01.000Z,0
2022-09-18T11:49:17.000Z,0
2022-09-18T11:50:33.000Z,0.1
2022-09-18T11:51:49.000Z,0
2022-09-18T11:53:06.000Z,0
2022-09-18T11:55:38.000Z,0
2022-09-18T11:56:54.000Z,0
2022-09-18T11:58:11.000Z,0
2022-09-18T11:59:27.000Z,0
2022-09-18T12:00:42.000Z,0.1
2022-09-18T12:01:58.000Z,0.1
2022-09-18T12:03:15.000Z,0.1
2022-09-18T12:04:31.000Z,0
2022-09-18T12:05:47.000Z,0
2022-09-18T12:07:03.000Z,0.1
2022-09-18T12:08:19.000Z,0
2022-09-18T12:09:36.000Z,0.1
2022-09-18T12:10:51.000Z,0
2022-09-18T12:12:06.000Z,0
2022-09-18T12:13:21.000Z,0.1
2022-09-18T12:14:37.000Z,0
2022-09-18T12:15:53.000Z,0
2022-09-18T12:17:09.000Z,0
2022-09-18T12:18:24.000Z,0
2022-09-18T12:19:40.000Z,0.1
2022-09-18T12:20:56.000Z,0
2022-09-18T12:22:12.000Z,0
2022-09-18T12:23:28.000Z,0.1
2022-09-18T12:24:45.000Z,0
2022-09-18T12:26:01.000Z,0
2022-09-18T12:27:17.000Z,0
2022-09-18T12:28:33.000Z,0
2022-09-18T12:29:50.000Z,0
2022-09-18T12:31:06.000Z,0
2022-09-18T12:32:22.000Z,0
2022-09-18T12:33:38.000Z,0
2022-09-18T12:34:55.000Z,0
2022-09-18T12:36:10.000Z,0
2022-09-18T12:37:26.000Z,0
2022-09-18T12:38:42.000Z,0
2022-09-18T12:39:58.000Z,0
2022-09-18T12:41:15.000Z,0
2022-09-18T12:42:31.000Z,0.1
2022-09-18T12:43:47.000Z,0
2022-09-18T12:45:03.000Z,0
2022-09-18T12:46:20.000Z,0.1
2022-09-18T12:47:35.000Z,0
2022-09-18T12:48:50.000Z,0
2022-09-18T12:50:06.000Z,0.1
2022-09-18T12:51:22.000Z,0
2022-09-18T12:52:37.000Z,0
2022-09-18T12:53:53.000Z,0
2022-09-18T12:55:09.000Z,0
2022-09-18T12:56:26.000Z,0
2022-09-18T12:57:42.000Z,0
2022-09-18T12:58:58.000Z,0
2022-09-18T13:00:14.000Z,0.1
2022-09-18T13:01:31.000Z,0
2022-09-18T13:02:47.000Z,0
2022-09-18T13:04:03.000Z,0
2022-09-18T13:05:19.000Z,0.1
2022-09-18T13:06:35.000Z,0.1
2022-09-18T13:07:52.000Z,0
2022-09-18T13:09:07.000Z,0
2022-09-18T13:10:23.000Z,0
2022-09-18T13:11:39.000Z,0
2022-09-18T13:12:56.000Z,0.1
2022-09-18T13:14:12.000Z,0.1
2022-09-18T13:15:28.000Z,0
2022-09-18T13:16:44.000Z,0
2022-09-18T13:18:01.000Z,0
2022-09-18T13:19:17.000Z,0.1
2022-09-18T13:20:33.000Z,0
2022-09-18T13:21:49.000Z,0
2022-09-18T13:23:06.000Z,0
2022-09-18T13:24:22.000Z,0.1
2022-09-18T13:25:37.000Z,0
2022-09-18T13:26:52.000Z,0
2022-09-18T13:28:08.000Z,0.1
2022-09-18T13:29:24.000Z,0.1
2022-09-18T13:30:39.000Z,0
2022-09-18T13:31:55.000Z,0
2022-09-18T13:33:11.000Z,0
2022-09-18T13:34:28.000Z,0.1
2022-09-18T13:35:43.000Z,0
2022-09-18T13:36:59.000Z,0
2022-09-18T13:38:15.000Z,0
2022-09-18T13:39:32.000Z,0
2022-09-18T13:40:48.000Z,0.1
2022-09-18T13:42:04.000Z,0
2022-09-18T13:43:20.000Z,0
2022-09-18T13:44:37.000Z,0
2022-09-18T13:45:53.000Z,0
2022-09-18T13:47:09.000Z,0
2022-09-18T13:48:25.000Z,0
2022-09-18T13:49:42.000Z,0
2022-09-18T13:50:58.000Z,0
2022-09-18T13:52:14.000Z,0
2022-09-18T13:53:29.000Z,0
2022-09-18T13:54:45.000Z,0.1
2022-09-18T13:56:02.000Z,0
2022-09-18T13:57:18.000Z,0
2022-09-18T13:58:33.000Z,0.1
2022-09-18T13:59:48.000Z,0
2022-09-18T14:01:04.000Z,0
2022-09-18T14:02:19.000Z,0.1
2022-09-18T14:03:35.000Z,0
2022-09-18T14:04:51.000Z,0
2022-09-18T14:06:08.000Z,0
2022-09-18T14:07:24.000Z,0.1
2022-09-18T14:08:40.000Z,0
2022-09-18T14:09:56.000Z,0
2022-09-18T14:11:13.000Z,0
2022-09-18T14:12:29.000Z,0
2022-09-18T14:13:45.000Z,0
2022-09-18T14:15:01.000Z,0.1
2022-09-18T14:16:18.000Z,0
2022-09-18T14:17:34.000Z,0
2022-09-18T14:18:49.000Z,0
2022-09-18T14:20:05.000Z,0
2022-09-18T14:21:22.000Z,0
2022-09-18T14:22:38.000Z,0.1
2022-09-18T14:23:54.000Z,0
2022-09-18T14:25:10.000Z,0
2022-09-18T14:26:26.000Z,0.1
2022-09-18T14:27:42.000Z,0
2022-09-18T14:28:57.000Z,0
2022-09-18T14:30:12.000Z,0
2022-09-18T14:31:27.000Z,0
2022-09-18T14:32:44.000Z,0
2022-09-18T14:34:00.000Z,0
2022-09-18T14:35:16.000Z,0
2022-09-18T14:36:32.000Z,0
2022-09-18T14:37:49.000Z,0
2022-09-18T14:39:05.000Z,0
2022-09-18T14:40:21.000Z,0
2022-09-18T14:41:37.000Z,0
2022-09-18T14:42:54.000Z,0
2022-09-18T14:44:10.000Z,0
2022-09-18T14:45:26.000Z,0
2022-09-18T14:46:42.000Z,0
2022-09-18T14:47:58.000Z,0.1
2022-09-18T14:49:14.000Z,0
2022-09-18T14:50:30.000Z,0
2022-09-18T14:51:46.000Z,0
2022-09-18T14:53:02.000Z,0
2022-09-18T14:54:19.000Z,0
2022-09-18T14:55:35.000Z,0
2022-09-18T14:56:50.000Z,0
2022-09-18T14:58:05.000Z,0.1
2022-09-18T14:59:22.000Z,0
2022-09-18T15:00:37.000Z,0
2022-09-18T15:01:52.000Z,0
2022-09-18T15:03:08.000Z,0
2022-09-18T15:04:25.000Z,0
2022-09-18T15:05:41.000Z,0.1
2022-09-18T15:06:57.000Z,0
2022-09-18T15:08:13.000Z,0
2022-09-18T15:09:30.000Z,0
2022-09-18T15:10:46.000Z,0
2022-09-18T15:12:02.000Z,0
2022-09-18T15:13:18.000Z,0
2022-09-18T15:14:35.000Z,0
2022-09-18T15:15:51.000Z,0
2022-09-18T15:17:07.000Z,0.1
2022-09-18T15:18:22.000Z,0
2022-09-18T15:19:38.000Z,0
2022-09-18T15:20:55.000Z,0
2022-09-18T15:22:11.000Z,0
2022-09-18T15:23:27.000Z,0
2022-09-18T15:24:43.000Z,0
2022-09-18T15:26:00.000Z,0.1
2022-09-18T15:27:16.000Z,0
2022-09-18T15:28:32.000Z,0
2022-09-18T15:29:48.818Z,0
2022-09-18T15:31:05.000Z,0
2022-09-18T15:32:20.000Z,0
2022-09-18T15:33:35.000Z,0
2022-09-18T15:34:51.000Z,0
2022-09-18T15:36:08.000Z,0
2022-09-18T15:37:24.000Z,0
2022-09-18T15:38:39.000Z,0.1
2022-09-18T15:39:54.000Z,0
2022-09-18T15:41:11.000Z,0
2022-09-18T15:42:27.000Z,0
2022-09-18T15:43:43.000Z,0
2022-09-18T15:44:59.000Z,0
2022-09-18T15:46:15.000Z,0
2022-09-18T15:47:32.000Z,0
2022-09-18T15:48:48.000Z,0
2022-09-18T15:50:04.000Z,0
2022-09-18T15:51:20.000Z,0.1
2022-09-18T15:52:37.000Z,0.1
2022-09-18T15:53:53.000Z,0
2022-09-18T15:55:09.000Z,0
2022-09-18T15:56:24.000Z,0.1
2022-09-18T15:57:41.000Z,0
2022-09-18T15:58:57.000Z,0
2022-09-18T16:00:13.000Z,0
2022-09-18T16:01:29.000Z,0
2022-09-18T16:02:45.000Z,0
2022-09-18T16:04:02.000Z,0
2022-09-18T16:05:17.000Z,0.1
2022-09-18T16:06:32.000Z,0
2022-09-18T16:07:48.000Z,0
2022-09-18T16:09:05.000Z,0.1
2022-09-18T16:10:20.000Z,0
2022-09-18T16:11:35.000Z,0
2022-09-18T16:12:51.000Z,0.1
2022-09-18T16:14:08.000Z,0
2022-09-18T16:15:24.000Z,0
2022-09-18T16:16:40.000Z,0
2022-09-18T16:17:56.000Z,0
2022-09-18T16:19:13.000Z,0
2022-09-18T16:20:29.000Z,0
2022-09-18T16:21:45.000Z,0.1
2022-09-18T16:23:01.000Z,0
2022-09-18T16:24:18.000Z,0
2022-09-18T16:25:34.000Z,0
2022-09-18T16:26:50.000Z,0
2022-09-18T16:28:05.000Z,0
2022-09-18T16:29:22.000Z,0.1
2022-09-18T16:30:38.000Z,0.1
2022-09-18T16:31:54.000Z,0
2022-09-18T16:33:10.000Z,0.1
2022-09-18T16:34:26.000Z,0
2022-09-18T16:35:43.000Z,0.1
2022-09-18T16:36:59.000Z,0.3
2022-09-18T16:38:15.000Z,0.3
2022-09-18T16:39:31.000Z,0.1
2022-09-18T16:40:48.000Z,0.2
2022-09-18T16:42:04.000Z,0.2
2022-09-18T16:43:20.000Z,0.2
2022-09-18T16:44:35.000Z,0.2
2022-09-18T16:45:52.000Z,0.2
2022-09-18T16:47:08.000Z,0.3
2022-09-18T16:48:24.000Z,0.2
2022-09-18T16:49:40.000Z,0.5
2022-09-18T16:50:57.000Z,0.3
2022-09-18T16:52:13.000Z,0.3
2022-09-18T16:53:29.000Z,0.4
2022-09-18T16:54:45.000Z,0.4
2022-09-18T16:56:01.000Z,0.4
2022-09-18T16:57:18.000Z,0.4
2022-09-18T16:58:34.000Z,0.4
2022-09-18T16:59:50.000Z,0.4
2022-09-18T17:01:05.000Z,0.4
2022-09-18T17:02:22.000Z,0.4
2022-09-18T17:03:38.000Z,0.5
2022-09-18T17:04:54.000Z,0.5
2022-09-18T17:06:10.000Z,0.4
2022-09-18T17:07:27.000Z,0.4
2022-09-18T17:08:43.000Z,0.5
2022-09-18T17:09:59.000Z,0.5
2022-09-18T17:11:15.000Z,0.5
2022-09-18T17:12:31.983Z,0.4
2022-09-18T17:13:47.000Z,0.4
2022-09-18T17:15:02.000Z,0.4
2022-09-18T17:16:18.000Z,0.4
2022-09-18T17:17:34.000Z,0.4
2022-09-18T17:18:51.000Z,0.5
2022-09-18T17:20:07.000Z,0.6
2022-09-18T17:21:23.000Z,0.4
2022-09-18T17:22:39.000Z,0.2
2022-09-18T17:23:56.000Z,0.3
2022-09-18T17:25:12.000Z,0.4
2022-09-18T17:26:28.000Z,0.3
2022-09-18T17:27:44.000Z,0.3
2022-09-18T17:29:01.000Z,0.4
2022-09-18T17:30:17.000Z,0.3
2022-09-18T17:31:33.000Z,0.3
2022-09-18T17:32:48.000Z,0.5
2022-09-18T17:34:04.000Z,0.3
2022-09-18T17:35:20.000Z,0.5
2022-09-18T17:36:36.000Z,0.4
2022-09-18T17:37:52.000Z,0.4
2022-09-18T17:39:08.000Z,0.3
2022-09-18T17:40:25.000Z,0.4
2022-09-18T17:41:41.000Z,0.3
2022-09-18T17:42:57.000Z,0.4
2022-09-18T17:44:13.000Z,0.5
2022-09-18T17:45:30.000Z,0.6
2022-09-18T17:46:46.000Z,0.5
2022-09-18T17:48:02.000Z,0.5
2022-09-18T17:49:18.000Z,0.5
2022-09-18T17:50:34.000Z,0.3
2022-09-18T17:51:50.000Z,0.4
2022-09-18T17:53:06.000Z,0.3
2022-09-18T17:54:22.000Z,0.5
2022-09-18T17:55:39.000Z,0.5
2022-09-18T17:56:55.000Z,0.6
2022-09-18T17:58:11.000Z,0.5